createdAt,value
2023-01-07T00:04:17.995Z,101583.91
2023-01-07T00:09:22.368Z,101572.38
2023-01-07T00:14:25.381Z,101564.84
2023-01-07T00:19:28.354Z,101564.56
2023-01-07T00:24:34.231Z,101569.81
2023-01-07T00:29:38.761Z,101567.47
2023-01-07T00:34:42.395Z,101573.41
2023-01-07T00:39:46.847Z,101565.75
2023-01-07T00:44:49.926Z,101557.88
2023-01-07T00:49:53.083Z,101551.41
2023-01-07T00:54:59.139Z,101547.88
2023-01-07T01:00:02.406Z,101530.72
2023-01-07T01:05:06.586Z,101529.28
2023-01-07T01:10:14.415Z,101539.63
2023-01-07T01:15:19.744Z,101524.03
2023-01-07T01:20:23.125Z,101526.06
2023-01-07T01:25:27.717Z,101510.84
2023-01-07T01:30:30.655Z,101511.75
2023-01-07T01:35:35.323Z,101514.88
2023-01-07T01:40:39.752Z,101518.78
2023-01-07T01:45:44.029Z,101518.19
2023-01-07T01:50:52.054Z,101514.94
2023-01-07T01:56:00.018Z,101510.59
2023-01-07T02:01:03.542Z,101504.91
2023-01-07T02:06:13.267Z,101496.06
2023-01-07T02:11:29.229Z,101500.03
2023-01-07T02:16:42.800Z,101495.59
2023-01-07T02:21:54.717Z,101501.06
2023-01-07T02:27:11.496Z,101494.66
2023-01-07T02:32:31.691Z,101491.72
2023-01-07T02:37:45.181Z,101494.03
2023-01-07T02:43:00.010Z,101484.94
2023-01-07T02:48:12.150Z,101475.72
2023-01-07T02:53:23.154Z,101480.13
2023-01-07T02:58:57.144Z,101476.13
2023-01-07T03:04:37.419Z,101473.41
2023-01-07T03:09:53.586Z,101466.06
2023-01-07T03:15:04.906Z,101462.47
2023-01-07T03:20:12.321Z,101454.38
2023-01-07T03:25:20.716Z,101449.06
2023-01-07T03:30:27.403Z,101440.06
2023-01-07T03:35:33.939Z,101443.31
2023-01-07T03:40:38.642Z,101426.47
2023-01-07T03:45:43.903Z,101434.34
2023-01-07T03:50:50.006Z,101421.22
2023-01-07T03:55:53.283Z,101423.84
2023-01-07T04:00:56.720Z,101429.91
2023-01-07T04:06:01.331Z,101415.81
2023-01-07T04:11:05.244Z,101409.84
2023-01-07T04:16:09.246Z,101408.34
2023-01-07T04:21:13.910Z,101399.84
2023-01-07T04:26:17.568Z,101395.41
2023-01-07T04:31:23.523Z,101384.09
2023-01-07T04:36:28.141Z,101370.09
2023-01-07T04:41:31.667Z,101365.66
2023-01-07T04:46:35.145Z,101370.84
2023-01-07T04:51:40.048Z,101362.88
2023-01-07T04:56:43.461Z,101360.84
2023-01-07T05:01:49.602Z,101345.81
2023-01-07T05:06:57.993Z,101342.28
2023-01-07T05:12:07.527Z,101335.00
2023-01-07T05:17:11.317Z,101333.94
2023-01-07T05:22:19.314Z,101344.41
2023-01-07T05:27:25.610Z,101340.53
2023-01-07T05:32:31.684Z,101340.00
2023-01-07T05:37:36.443Z,101320.88
2023-01-07T05:42:39.740Z,101314.72
2023-01-07T05:47:44.203Z,101320.97
2023-01-07T05:52:49.881Z,101305.91
2023-01-07T05:57:53.154Z,101302.75
2023-01-07T06:02:56.161Z,101302.97
2023-01-07T06:08:00.514Z,101291.50
2023-01-07T06:13:06.299Z,101282.59
2023-01-07T06:18:09.670Z,101274.88
2023-01-07T06:23:14.151Z,101266.69
2023-01-07T06:28:17.282Z,101255.41
2023-01-07T06:33:23.312Z,101266.81
2023-01-07T06:38:27.644Z,101261.72
2023-01-07T06:43:31.198Z,101244.63
2023-01-07T06:48:34.358Z,101244.22
2023-01-07T06:53:38.792Z,101242.63
2023-01-07T06:58:41.898Z,101245.47
2023-01-07T07:03:44.884Z,101245.47
2023-01-07T07:08:49.323Z,101225.84
2023-01-07T07:13:52.344Z,101223.78
2023-01-07T07:18:55.834Z,101219.75
2023-01-07T07:24:00.618Z,101215.19
2023-01-07T07:29:03.687Z,101217.00
2023-01-07T07:34:06.781Z,101218.25
2023-01-07T07:39:12.278Z,101209.75
2023-01-07T07:44:15.446Z,101215.97
2023-01-07T07:49:18.447Z,101208.03
2023-01-07T07:54:23.964Z,101191.22
2023-01-07T07:59:27.293Z,101187.59
2023-01-07T08:04:34.588Z,101175.72
2023-01-07T08:09:39.235Z,101187.72
2023-01-07T08:14:43.823Z,101173.34
2023-01-07T08:19:46.914Z,101185.59
2023-01-07T08:24:51.251Z,101183.59
2023-01-07T08:29:54.956Z,101184.03
2023-01-07T08:34:58.088Z,101174.63
2023-01-07T08:40:05.738Z,101175.81
2023-01-07T08:45:10.854Z,101175.16
2023-01-07T08:50:13.923Z,101169.19
2023-01-07T08:55:20.296Z,101165.88
2023-01-07T09:00:23.977Z,101165.25
2023-01-07T09:05:27.258Z,101161.94
2023-01-07T09:10:32.216Z,101150.75
2023-01-07T09:15:35.344Z,101147.50
2023-01-07T09:20:38.407Z,101131.53
2023-01-07T09:25:42.767Z,101124.78
2023-01-07T09:30:48.206Z,101109.13
2023-01-07T09:36:06.475Z,101096.09
2023-01-07T09:41:26.621Z,101093.22
2023-01-07T09:46:31.952Z,101087.44
2023-01-07T09:51:39.434Z,101082.41
2023-01-07T09:56:44.152Z,101075.56
2023-01-07T10:07:22.321Z,101062.69
2023-01-07T10:12:33.665Z,101040.84
2023-01-07T10:17:47.067Z,101041.59
2023-01-07T10:22:53.504Z,101029.56
2023-01-07T10:28:04.265Z,101022.91
2023-01-07T10:33:25.125Z,101014.53
2023-01-07T10:38:31.344Z,101002.59
2023-01-07T10:43:53.350Z,100995.09
2023-01-07T10:49:11.995Z,100982.31
2023-01-07T10:54:31.987Z,100965.94
2023-01-07T10:59:38.079Z,100957.97
2023-01-07T11:04:41.090Z,100943.09
2023-01-07T11:09:49.137Z,100930.88
2023-01-07T11:14:56.849Z,100920.59
2023-01-07T11:19:59.971Z,100880.22
2023-01-07T11:25:24.286Z,100878.88
2023-01-07T11:30:32.656Z,100877.25
2023-01-07T11:35:44.369Z,100869.94
2023-01-07T11:40:59.956Z,100853.47
2023-01-07T11:46:19.860Z,100844.63
2023-01-07T11:51:25.673Z,100837.47
2023-01-07T11:56:30.580Z,100841.66
2023-01-07T12:01:43.075Z,100852.13
2023-01-07T12:06:48.611Z,100837.16
2023-01-07T12:11:55.508Z,100825.69
2023-01-07T12:17:11.319Z,100806.66
2023-01-07T12:22:25.059Z,100794.66
2023-01-07T12:27:36.232Z,100793.06
2023-01-07T12:32:55.592Z,100788.09
2023-01-07T12:38:05.559Z,100763.50
2023-01-07T12:43:15.119Z,100750.28
2023-01-07T12:48:30.963Z,100724.75
2023-01-07T12:53:40.691Z,100719.78
2023-01-07T12:58:50.859Z,100695.91
2023-01-07T13:04:07.081Z,100684.56
2023-01-07T13:09:21.849Z,100672.34
2023-01-07T13:14:28.568Z,100668.69
2023-01-07T13:19:33.115Z,100655.41
2023-01-07T13:24:56.163Z,100651.97
2023-01-07T13:30:13.753Z,100657.47
2023-01-07T13:35:32.643Z,100652.22
2023-01-07T13:41:03.016Z,100636.31
2023-01-07T13:46:11.687Z,100617.16
2023-01-07T13:51:17.203Z,100610.75
2023-01-07T13:56:51.529Z,100602.94
2023-01-07T14:02:21.149Z,100600.91
2023-01-07T14:07:27.985Z,100603.91
2023-01-07T14:13:08.050Z,100591.75
2023-01-07T14:18:50.244Z,100586.75
2023-01-07T14:24:16.725Z,100568.38
2023-01-07T14:29:40.817Z,100551.75
2023-01-07T14:34:43.896Z,100564.09
2023-01-07T14:39:48.813Z,100565.72
2023-01-07T14:44:52.433Z,100568.28
2023-01-07T14:50:20.401Z,100566.44
2023-01-07T14:55:36.143Z,100561.81
2023-01-07T15:00:57.614Z,100567.06
2023-01-07T15:06:24.692Z,100550.28
2023-01-07T15:11:47.647Z,100542.38
2023-01-07T15:16:53.575Z,100522.69
2023-01-07T15:22:08.311Z,100533.28
2023-01-07T15:27:20.174Z,100524.22
2023-01-07T15:32:38.046Z,100526.66
2023-01-07T15:37:48.965Z,100516.78
2023-01-07T15:42:56.145Z,100508.78
2023-01-07T15:48:13.042Z,100505.97
2023-01-07T15:53:26.682Z,100499.66
2023-01-07T15:58:36.337Z,100492.47
2023-01-07T16:03:40.681Z,100482.25
2023-01-07T16:08:45.685Z,100479.44
2023-01-07T16:13:59.380Z,100469.41
2023-01-07T16:19:06.704Z,100466.69
2023-01-07T16:24:16.727Z,100464.97
2023-01-07T16:29:27.067Z,100471.81
2023-01-07T16:34:54.530Z,100487.50
2023-01-07T16:40:28.935Z,100482.59
2023-01-07T16:46:13.422Z,100500.44
2023-01-07T16:51:36.785Z,100485.41
2023-01-07T16:56:50.885Z,100496.56
2023-01-07T17:01:56.393Z,100493.00
2023-01-07T17:07:02.117Z,100481.69
2023-01-07T17:12:06.701Z,100475.81
2023-01-07T17:17:22.883Z,100484.13
2023-01-07T17:22:31.963Z,100463.16
2023-01-07T17:27:39.500Z,100455.16
2023-01-07T17:32:44.894Z,100446.38
2023-01-07T17:37:52.604Z,100432.38
2023-01-07T17:43:14.456Z,100420.84
2023-01-07T17:48:20.047Z,100428.50
2023-01-07T17:53:27.853Z,100411.81
2023-01-07T17:58:36.446Z,100416.34
2023-01-07T18:03:41.286Z,100409.34
2023-01-07T18:08:44.539Z,100407.59
2023-01-07T18:13:47.893Z,100398.41
2023-01-07T18:18:56.595Z,100387.63
2023-01-07T18:23:59.708Z,100396.97
2023-01-07T18:29:02.709Z,100402.00
2023-01-07T18:34:07.070Z,100395.47
2023-01-07T18:39:20.168Z,100412.66
2023-01-07T18:44:27.168Z,100404.91
2023-01-07T18:49:31.549Z,100399.25
2023-01-07T18:54:39.996Z,100393.44
2023-01-07T18:59:43.364Z,100406.91
2023-01-07T19:04:55.175Z,100406.16
2023-01-07T19:09:58.349Z,100399.38
2023-01-07T19:15:04.660Z,100394.31
2023-01-07T19:20:10.322Z,100388.22
2023-01-07T19:25:15.751Z,100393.16
2023-01-07T19:30:19.155Z,100393.47
2023-01-07T19:35:23.626Z,100373.63
2023-01-07T19:40:26.701Z,100380.97
2023-01-07T19:45:32.891Z,100380.22
2023-01-07T19:50:37.341Z,100365.38
2023-01-07T19:55:40.292Z,100376.91
2023-01-07T20:00:43.397Z,100361.22
2023-01-07T20:05:52.826Z,100358.69
2023-01-07T20:11:01.495Z,100350.53
2023-01-07T20:16:06.354Z,100341.91
2023-01-07T20:21:11.628Z,100341.19
2023-01-07T20:26:16.411Z,100355.88
2023-01-07T20:31:26.586Z,100363.00
2023-01-07T20:36:33.942Z,100357.84
2023-01-07T20:41:38.879Z,100347.34
2023-01-07T20:46:41.970Z,100342.09
2023-01-07T20:51:46.400Z,100331.63
2023-01-07T20:56:51.468Z,100323.94
2023-01-07T21:01:57.133Z,100327.47
2023-01-07T21:07:01.588Z,100324.75
2023-01-07T21:12:07.659Z,100321.31
2023-01-07T21:17:13.408Z,100317.78
2023-01-07T21:22:19.651Z,100323.16
2023-01-07T21:27:24.774Z,100310.13
2023-01-07T21:32:30.943Z,100313.72
2023-01-07T21:37:38.198Z,100309.31
2023-01-07T21:42:41.505Z,100312.94
2023-01-07T21:47:44.573Z,100310.13
2023-01-07T21:52:48.996Z,100308.69
2023-01-07T21:57:51.992Z,100317.56
2023-01-07T22:02:55.079Z,100307.09
2023-01-07T22:07:59.507Z,100315.03
2023-01-07T22:13:02.643Z,100299.31
2023-01-07T22:18:05.839Z,100290.59
2023-01-07T22:23:16.480Z,100284.25
2023-01-07T22:28:27.260Z,100302.81
2023-01-07T22:33:30.271Z,100302.63
2023-01-07T22:38:34.782Z,100298.22
2023-01-07T22:43:38.115Z,100316.34
2023-01-07T22:48:41.147Z,100313.81
2023-01-07T22:53:45.788Z,100308.63
2023-01-07T22:58:48.826Z,100307.09
2023-01-07T23:03:51.924Z,100303.56
2023-01-07T23:09:05.549Z,100304.53
2023-01-07T23:14:08.617Z,100312.44
2023-01-07T23:19:11.951Z,100308.16
2023-01-07T23:24:16.506Z,100303.84
2023-01-07T23:29:20.259Z,100313.44
2023-01-07T23:34:23.404Z,100317.88
2023-01-07T23:39:28.904Z,100310.72
2023-01-07T23:44:31.895Z,100310.69
2023-01-07T23:49:34.906Z,100312.47
2023-01-07T23:54:39.660Z,100314.31
2023-01-07T23:59:43.859Z,100309.84
